Manchaca, Texas
Current Conditions -  °F | °C
As of 3:53 PM on Sunday 21 Dec 2014 (Local Time) from KAUS Reporting Station
Overcast Overcast  
Wind Chill: 55°   Ceiling: 1500
Heat Index: 55°   Visibility: 10mi
Dew Point: 50°   Wind: 10mph
Humidity: 83%   Direction: 180°S
Pressure: 29.91"   Gusts: NA
Location:  30.14°N, 97.83°W
Report Text: KAUS 212153Z 18009KT 10SM OVC015 13/10 A2991 RMK AO2 SLP129 T01280100
Loading
Personal Weather Stations






























Interactive Weather Map New forecast layout! Learn more

10-Day Weather Forecast

Advertisements
Track Severe Weather on mobile